sensor_id;sensor_type;location;lat;lon;timestamp;P1;durP1;ratioP1;P2;durP2;ratioP2
18776;SDS011;9517;51.174;4.160;2023-11-18T00:00:55;41.23;;;23.30;;
18776;SDS011;9517;51.174;4.160;2023-11-18T00:03:23;43.50;;;24.20;;
18776;SDS011;9517;51.174;4.160;2023-11-18T00:05:50;42.23;;;24.23;;
18776;SDS011;9517;51.174;4.160;2023-11-18T00:08:17;39.23;;;24.47;;
18776;SDS011;9517;51.174;4.160;2023-11-18T00:10:44;45.63;;;23.70;;
18776;SDS011;9517;51.174;4.160;2023-11-18T00:13:13;46.37;;;25.00;;
18776;SDS011;9517;51.174;4.160;2023-11-18T00:15:40;47.13;;;25.40;;
18776;SDS011;9517;51.174;4.160;2023-11-18T00:18:07;45.40;;;25.63;;
18776;SDS011;9517;51.174;4.160;2023-11-18T00:20:35;46.07;;;25.43;;
18776;SDS011;9517;51.174;4.160;2023-11-18T00:23:02;55.53;;;27.27;;
18776;SDS011;9517;51.174;4.160;2023-11-18T00:25:29;46.67;;;26.47;;
18776;SDS011;9517;51.174;4.160;2023-11-18T00:27:56;54.83;;;27.90;;
18776;SDS011;9517;51.174;4.160;2023-11-18T00:30:25;51.47;;;25.07;;
18776;SDS011;9517;51.174;4.160;2023-11-18T00:32:53;47.30;;;26.03;;
18776;SDS011;9517;51.174;4.160;2023-11-18T00:35:20;46.63;;;25.00;;
18776;SDS011;9517;51.174;4.160;2023-11-18T00:37:47;50.77;;;25.70;;
18776;SDS011;9517;51.174;4.160;2023-11-18T00:40:14;52.77;;;25.37;;
18776;SDS011;9517;51.174;4.160;2023-11-18T00:42:43;51.60;;;26.33;;
18776;SDS011;9517;51.174;4.160;2023-11-18T00:45:10;41.20;;;24.13;;
18776;SDS011;9517;51.174;4.160;2023-11-18T00:47:39;49.37;;;25.37;;
18776;SDS011;9517;51.174;4.160;2023-11-18T00:50:07;42.47;;;24.07;;
18776;SDS011;9517;51.174;4.160;2023-11-18T00:52:34;43.77;;;23.47;;
18776;SDS011;9517;51.174;4.160;2023-11-18T00:55:03;44.27;;;22.90;;
18776;SDS011;9517;51.174;4.160;2023-11-18T00:57:32;42.23;;;21.93;;
18776;SDS011;9517;51.174;4.160;2023-11-18T00:59:59;39.63;;;22.63;;
18776;SDS011;9517;51.174;4.160;2023-11-18T01:02:26;42.83;;;21.80;;
18776;SDS011;9517;51.174;4.160;2023-11-18T01:04:55;45.33;;;21.47;;
18776;SDS011;9517;51.174;4.160;2023-11-18T01:07:22;40.20;;;22.30;;
18776;SDS011;9517;51.174;4.160;2023-11-18T01:09:48;41.87;;;20.27;;
18776;SDS011;9517;51.174;4.160;2023-11-18T01:12:15;45.33;;;20.73;;
18776;SDS011;9517;51.174;4.160;2023-11-18T01:14:43;37.73;;;20.63;;
18776;SDS011;9517;51.174;4.160;2023-11-18T01:17:10;39.00;;;20.43;;
18776;SDS011;9517;51.174;4.160;2023-11-18T01:19:38;41.70;;;20.83;;
18776;SDS011;9517;51.174;4.160;2023-11-18T01:22:07;46.23;;;21.00;;
18776;SDS011;9517;51.174;4.160;2023-11-18T01:24:36;41.47;;;21.67;;
18776;SDS011;9517;51.174;4.160;2023-11-18T01:27:04;42.30;;;20.10;;
18776;SDS011;9517;51.174;4.160;2023-11-18T01:29:33;36.00;;;20.00;;
18776;SDS011;9517;51.174;4.160;2023-11-18T01:32:00;41.43;;;20.17;;
18776;SDS011;9517;51.174;4.160;2023-11-18T01:34:33;40.13;;;19.67;;
18776;SDS011;9517;51.174;4.160;2023-11-18T01:37:01;37.50;;;18.60;;
18776;SDS011;9517;51.174;4.160;2023-11-18T01:39:31;39.00;;;18.93;;
18776;SDS011;9517;51.174;4.160;2023-11-18T01:41:58;39.20;;;17.67;;
18776;SDS011;9517;51.174;4.160;2023-11-18T01:44:25;42.03;;;18.97;;
18776;SDS011;9517;51.174;4.160;2023-11-18T01:46:53;37.40;;;18.43;;
18776;SDS011;9517;51.174;4.160;2023-11-18T01:49:20;37.23;;;18.00;;
18776;SDS011;9517;51.174;4.160;2023-11-18T01:51:49;34.63;;;18.70;;
18776;SDS011;9517;51.174;4.160;2023-11-18T01:54:17;42.83;;;19.00;;
18776;SDS011;9517;51.174;4.160;2023-11-18T01:56:46;40.03;;;17.17;;
18776;SDS011;9517;51.174;4.160;2023-11-18T01:59:14;35.30;;;17.10;;
18776;SDS011;9517;51.174;4.160;2023-11-18T02:01:45;37.17;;;17.50;;
18776;SDS011;9517;51.174;4.160;2023-11-18T02:04:15;48.30;;;18.37;;
18776;SDS011;9517;51.174;4.160;2023-11-18T02:06:44;38.70;;;19.07;;
18776;SDS011;9517;51.174;4.160;2023-11-18T02:09:11;35.90;;;18.17;;
18776;SDS011;9517;51.174;4.160;2023-11-18T02:11:39;42.07;;;18.10;;
18776;SDS011;9517;51.174;4.160;2023-11-18T02:14:13;38.77;;;18.50;;
18776;SDS011;9517;51.174;4.160;2023-11-18T02:16:42;36.20;;;18.00;;
18776;SDS011;9517;51.174;4.160;2023-11-18T02:19:15;46.23;;;18.47;;
18776;SDS011;9517;51.174;4.160;2023-11-18T02:21:46;41.87;;;18.10;;
18776;SDS011;9517;51.174;4.160;2023-11-18T02:24:24;35.13;;;17.40;;
18776;SDS011;9517;51.174;4.160;2023-11-18T02:26:56;37.03;;;17.40;;
18776;SDS011;9517;51.174;4.160;2023-11-18T02:29:23;37.37;;;17.10;;
18776;SDS011;9517;51.174;4.160;2023-11-18T02:31:52;33.50;;;17.73;;
18776;SDS011;9517;51.174;4.160;2023-11-18T02:34:23;31.83;;;15.73;;
18776;SDS011;9517;51.174;4.160;2023-11-18T02:36:55;35.27;;;16.40;;
18776;SDS011;9517;51.174;4.160;2023-11-18T02:39:27;31.53;;;16.50;;
18776;SDS011;9517;51.174;4.160;2023-11-18T02:42:01;34.67;;;15.20;;
18776;SDS011;9517;51.174;4.160;2023-11-18T02:44:33;29.07;;;15.43;;
18776;SDS011;9517;51.174;4.160;2023-11-18T02:47:02;32.10;;;16.20;;
18776;SDS011;9517;51.174;4.160;2023-11-18T02:49:31;33.03;;;14.87;;
18776;SDS011;9517;51.174;4.160;2023-11-18T02:51:58;32.23;;;14.63;;
18776;SDS011;9517;51.174;4.160;2023-11-18T02:54:25;35.70;;;15.40;;
18776;SDS011;9517;51.174;4.160;2023-11-18T02:56:52;28.70;;;14.27;;
18776;SDS011;9517;51.174;4.160;2023-11-18T02:59:21;33.90;;;16.63;;
18776;SDS011;9517;51.174;4.160;2023-11-18T03:01:48;29.83;;;14.90;;
18776;SDS011;9517;51.174;4.160;2023-11-18T03:04:15;33.77;;;14.93;;
18776;SDS011;9517;51.174;4.160;2023-11-18T03:06:44;32.57;;;14.30;;
18776;SDS011;9517;51.174;4.160;2023-11-18T03:09:11;31.97;;;15.27;;
18776;SDS011;9517;51.174;4.160;2023-11-18T03:11:38;35.83;;;14.83;;
18776;SDS011;9517;51.174;4.160;2023-11-18T03:14:05;33.70;;;14.03;;
18776;SDS011;9517;51.174;4.160;2023-11-18T03:16:36;32.67;;;14.27;;
18776;SDS011;9517;51.174;4.160;2023-11-18T03:19:04;34.90;;;14.73;;
18776;SDS011;9517;51.174;4.160;2023-11-18T03:21:32;28.13;;;13.10;;
18776;SDS011;9517;51.174;4.160;2023-11-18T03:23:59;26.73;;;13.53;;
18776;SDS011;9517;51.174;4.160;2023-11-18T03:26:26;26.27;;;12.83;;
18776;SDS011;9517;51.174;4.160;2023-11-18T03:28:53;28.50;;;12.37;;
18776;SDS011;9517;51.174;4.160;2023-11-18T03:31:20;27.53;;;10.83;;
18776;SDS011;9517;51.174;4.160;2023-11-18T03:33:48;23.53;;;11.27;;
18776;SDS011;9517;51.174;4.160;2023-11-18T03:36:15;25.73;;;11.70;;
18776;SDS011;9517;51.174;4.160;2023-11-18T03:38:44;26.23;;;12.10;;
18776;SDS011;9517;51.174;4.160;2023-11-18T03:41:11;26.87;;;12.30;;
18776;SDS011;9517;51.174;4.160;2023-11-18T03:43:38;28.40;;;12.30;;
18776;SDS011;9517;51.174;4.160;2023-11-18T03:46:05;28.37;;;11.77;;
18776;SDS011;9517;51.174;4.160;2023-11-18T03:48:32;30.13;;;12.47;;
18776;SDS011;9517;51.174;4.160;2023-11-18T03:51:02;27.23;;;12.03;;
18776;SDS011;9517;51.174;4.160;2023-11-18T03:53:29;27.93;;;11.50;;
18776;SDS011;9517;51.174;4.160;2023-11-18T03:55:58;26.10;;;10.93;;
18776;SDS011;9517;51.174;4.160;2023-11-18T03:58:27;28.93;;;11.47;;
18776;SDS011;9517;51.174;4.160;2023-11-18T04:00:54;24.13;;;10.93;;
18776;SDS011;9517;51.174;4.160;2023-11-18T04:03:21;37.53;;;10.47;;
18776;SDS011;9517;51.174;4.160;2023-11-18T04:05:48;25.60;;;9.77;;
18776;SDS011;9517;51.174;4.160;2023-11-18T04:08:17;25.23;;;10.00;;
18776;SDS011;9517;51.174;4.160;2023-11-18T04:10:44;26.43;;;9.70;;
18776;SDS011;9517;51.174;4.160;2023-11-18T04:13:11;21.80;;;9.20;;
18776;SDS011;9517;51.174;4.160;2023-11-18T04:15:38;22.83;;;9.50;;
18776;SDS011;9517;51.174;4.160;2023-11-18T04:18:05;21.67;;;8.10;;
18776;SDS011;9517;51.174;4.160;2023-11-18T04:20:32;22.23;;;8.50;;
18776;SDS011;9517;51.174;4.160;2023-11-18T04:22:59;24.60;;;9.23;;
18776;SDS011;9517;51.174;4.160;2023-11-18T04:25:28;25.33;;;8.47;;
18776;SDS011;9517;51.174;4.160;2023-11-18T04:27:54;26.90;;;9.13;;
18776;SDS011;9517;51.174;4.160;2023-11-18T04:30:22;30.60;;;9.13;;
18776;SDS011;9517;51.174;4.160;2023-11-18T04:32:51;28.17;;;8.27;;
18776;SDS011;9517;51.174;4.160;2023-11-18T04:35:19;27.60;;;8.00;;
18776;SDS011;9517;51.174;4.160;2023-11-18T04:37:47;26.27;;;8.50;;
18776;SDS011;9517;51.174;4.160;2023-11-18T04:40:14;26.57;;;8.23;;
18776;SDS011;9517;51.174;4.160;2023-11-18T04:42:43;28.80;;;9.10;;
18776;SDS011;9517;51.174;4.160;2023-11-18T04:45:10;32.00;;;9.07;;
18776;SDS011;9517;51.174;4.160;2023-11-18T04:47:39;27.77;;;9.43;;
18776;SDS011;9517;51.174;4.160;2023-11-18T04:50:08;30.00;;;9.50;;
18776;SDS011;9517;51.174;4.160;2023-11-18T04:52:36;33.53;;;9.63;;
18776;SDS011;9517;51.174;4.160;2023-11-18T04:55:03;32.20;;;8.97;;
18776;SDS011;9517;51.174;4.160;2023-11-18T04:57:31;37.33;;;10.77;;
18776;SDS011;9517;51.174;4.160;2023-11-18T05:00:00;30.57;;;8.20;;
18776;SDS011;9517;51.174;4.160;2023-11-18T05:02:35;28.73;;;8.23;;
18776;SDS011;9517;51.174;4.160;2023-11-18T05:05:03;31.37;;;8.70;;
18776;SDS011;9517;51.174;4.160;2023-11-18T05:07:31;32.50;;;8.37;;
18776;SDS011;9517;51.174;4.160;2023-11-18T05:09:58;31.53;;;8.10;;
18776;SDS011;9517;51.174;4.160;2023-11-18T05:12:25;29.47;;;8.13;;
18776;SDS011;9517;51.174;4.160;2023-11-18T05:14:54;26.63;;;7.17;;
18776;SDS011;9517;51.174;4.160;2023-11-18T05:17:23;29.73;;;7.90;;
18776;SDS011;9517;51.174;4.160;2023-11-18T05:19:51;25.83;;;6.57;;
18776;SDS011;9517;51.174;4.160;2023-11-18T05:22:18;28.20;;;6.73;;
18776;SDS011;9517;51.174;4.160;2023-11-18T05:24:45;32.67;;;6.83;;
18776;SDS011;9517;51.174;4.160;2023-11-18T05:27:13;22.70;;;7.17;;
18776;SDS011;9517;51.174;4.160;2023-11-18T05:29:40;21.83;;;5.20;;
18776;SDS011;9517;51.174;4.160;2023-11-18T05:32:10;18.77;;;5.30;;
18776;SDS011;9517;51.174;4.160;2023-11-18T05:34:38;19.40;;;4.93;;
18776;SDS011;9517;51.174;4.160;2023-11-18T05:37:06;19.80;;;4.67;;
18776;SDS011;9517;51.174;4.160;2023-11-18T05:39:32;24.80;;;5.07;;
18776;SDS011;9517;51.174;4.160;2023-11-18T05:42:08;17.83;;;4.47;;
18776;SDS011;9517;51.174;4.160;2023-11-18T05:44:35;22.70;;;4.30;;
18776;SDS011;9517;51.174;4.160;2023-11-18T05:47:04;21.97;;;4.67;;
18776;SDS011;9517;51.174;4.160;2023-11-18T05:49:32;18.50;;;3.67;;
18776;SDS011;9517;51.174;4.160;2023-11-18T05:52:00;16.20;;;4.07;;
18776;SDS011;9517;51.174;4.160;2023-11-18T05:54:27;17.83;;;3.50;;
18776;SDS011;9517;51.174;4.160;2023-11-18T05:56:55;15.97;;;3.37;;
18776;SDS011;9517;51.174;4.160;2023-11-18T05:59:24;24.93;;;3.23;;
18776;SDS011;9517;51.174;4.160;2023-11-18T06:01:51;19.67;;;3.10;;
18776;SDS011;9517;51.174;4.160;2023-11-18T06:04:18;14.73;;;3.30;;
18776;SDS011;9517;51.174;4.160;2023-11-18T06:06:45;11.40;;;2.90;;
18776;SDS011;9517;51.174;4.160;2023-11-18T06:09:14;17.40;;;3.17;;
18776;SDS011;9517;51.174;4.160;2023-11-18T06:11:45;15.27;;;2.80;;
18776;SDS011;9517;51.174;4.160;2023-11-18T06:14:14;20.47;;;3.17;;
18776;SDS011;9517;51.174;4.160;2023-11-18T06:16:42;12.70;;;2.60;;
18776;SDS011;9517;51.174;4.160;2023-11-18T06:19:09;18.77;;;3.27;;
18776;SDS011;9517;51.174;4.160;2023-11-18T06:21:36;14.03;;;2.20;;
18776;SDS011;9517;51.174;4.160;2023-11-18T06:24:03;19.87;;;3.00;;
18776;SDS011;9517;51.174;4.160;2023-11-18T06:26:32;14.90;;;2.40;;
18776;SDS011;9517;51.174;4.160;2023-11-18T06:29:01;16.20;;;2.80;;
18776;SDS011;9517;51.174;4.160;2023-11-18T06:31:29;25.83;;;7.13;;
18776;SDS011;9517;51.174;4.160;2023-11-18T06:33:57;18.83;;;3.90;;
18776;SDS011;9517;51.174;4.160;2023-11-18T06:36:24;18.87;;;3.83;;
18776;SDS011;9517;51.174;4.160;2023-11-18T06:38:51;18.80;;;4.07;;
18776;SDS011;9517;51.174;4.160;2023-11-18T06:41:21;16.67;;;3.30;;
18776;SDS011;9517;51.174;4.160;2023-11-18T06:43:52;15.50;;;3.27;;
18776;SDS011;9517;51.174;4.160;2023-11-18T06:46:27;14.77;;;3.50;;
18776;SDS011;9517;51.174;4.160;2023-11-18T06:48:57;15.03;;;2.60;;
18776;SDS011;9517;51.174;4.160;2023-11-18T06:51:25;20.17;;;2.97;;
18776;SDS011;9517;51.174;4.160;2023-11-18T06:53:53;14.73;;;3.40;;
18776;SDS011;9517;51.174;4.160;2023-11-18T06:56:21;12.53;;;2.20;;
18776;SDS011;9517;51.174;4.160;2023-11-18T06:58:48;18.30;;;2.87;;
18776;SDS011;9517;51.174;4.160;2023-11-18T07:01:17;14.87;;;2.43;;
18776;SDS011;9517;51.174;4.160;2023-11-18T07:03:48;13.77;;;2.93;;
18776;SDS011;9517;51.174;4.160;2023-11-18T07:06:18;11.83;;;3.27;;
18776;SDS011;9517;51.174;4.160;2023-11-18T07:08:53;14.63;;;3.90;;
18776;SDS011;9517;51.174;4.160;2023-11-18T07:14:18;14.97;;;3.17;;
18776;SDS011;9517;51.174;4.160;2023-11-18T07:16:52;16.10;;;3.30;;
18776;SDS011;9517;51.174;4.160;2023-11-18T07:19:27;20.73;;;3.70;;
18776;SDS011;9517;51.174;4.160;2023-11-18T07:22:14;21.73;;;3.80;;
18776;SDS011;9517;51.174;4.160;2023-11-18T07:24:41;20.53;;;4.13;;
18776;SDS011;9517;51.174;4.160;2023-11-18T07:27:14;15.53;;;3.17;;
18776;SDS011;9517;51.174;4.160;2023-11-18T07:29:45;16.33;;;2.93;;
18776;SDS011;9517;51.174;4.160;2023-11-18T07:39:12;15.47;;;2.70;;
18776;SDS011;9517;51.174;4.160;2023-11-18T07:41:45;16.07;;;3.20;;
18776;SDS011;9517;51.174;4.160;2023-11-18T07:51:02;22.43;;;3.50;;
18776;SDS011;9517;51.174;4.160;2023-11-18T07:57:17;23.00;;;5.07;;
18776;SDS011;9517;51.174;4.160;2023-11-18T07:59:44;19.27;;;4.43;;
18776;SDS011;9517;51.174;4.160;2023-11-18T08:02:11;20.57;;;5.47;;
18776;SDS011;9517;51.174;4.160;2023-11-18T08:04:43;19.20;;;4.10;;
18776;SDS011;9517;51.174;4.160;2023-11-18T08:07:10;15.77;;;2.97;;
18776;SDS011;9517;51.174;4.160;2023-11-18T08:09:40;16.03;;;3.43;;
18776;SDS011;9517;51.174;4.160;2023-11-18T08:12:08;14.27;;;3.43;;
18776;SDS011;9517;51.174;4.160;2023-11-18T08:14:36;14.10;;;3.67;;
18776;SDS011;9517;51.174;4.160;2023-11-18T08:17:03;15.77;;;3.50;;
18776;SDS011;9517;51.174;4.160;2023-11-18T08:19:31;13.60;;;4.90;;
18776;SDS011;9517;51.174;4.160;2023-11-18T08:21:59;20.83;;;4.63;;
18776;SDS011;9517;51.174;4.160;2023-11-18T08:24:26;19.20;;;4.20;;
18776;SDS011;9517;51.174;4.160;2023-11-18T08:26:56;15.07;;;4.20;;
18776;SDS011;9517;51.174;4.160;2023-11-18T08:29:23;16.80;;;3.40;;
18776;SDS011;9517;51.174;4.160;2023-11-18T08:31:56;15.50;;;4.10;;
18776;SDS011;9517;51.174;4.160;2023-11-18T08:34:23;15.60;;;4.23;;
18776;SDS011;9517;51.174;4.160;2023-11-18T08:36:51;17.50;;;4.50;;
18776;SDS011;9517;51.174;4.160;2023-11-18T08:39:18;20.37;;;4.43;;
18776;SDS011;9517;51.174;4.160;2023-11-18T08:41:45;16.33;;;4.00;;
18776;SDS011;9517;51.174;4.160;2023-11-18T08:44:17;18.90;;;4.57;;
18776;SDS011;9517;51.174;4.160;2023-11-18T08:46:44;19.87;;;4.87;;
18776;SDS011;9517;51.174;4.160;2023-11-18T08:49:12;24.97;;;5.10;;
18776;SDS011;9517;51.174;4.160;2023-11-18T08:51:41;15.00;;;4.60;;
18776;SDS011;9517;51.174;4.160;2023-11-18T08:54:08;31.83;;;5.60;;
18776;SDS011;9517;51.174;4.160;2023-11-18T08:56:47;31.90;;;5.93;;
18776;SDS011;9517;51.174;4.160;2023-11-18T08:59:19;23.10;;;4.63;;
18776;SDS011;9517;51.174;4.160;2023-11-18T09:01:50;20.07;;;4.63;;
18776;SDS011;9517;51.174;4.160;2023-11-18T09:04:21;15.90;;;4.70;;
18776;SDS011;9517;51.174;4.160;2023-11-18T09:06:49;20.07;;;4.63;;
18776;SDS011;9517;51.174;4.160;2023-11-18T09:09:19;17.70;;;4.87;;
18776;SDS011;9517;51.174;4.160;2023-11-18T09:11:51;16.30;;;5.63;;
18776;SDS011;9517;51.174;4.160;2023-11-18T09:14:22;20.20;;;5.97;;
18776;SDS011;9517;51.174;4.160;2023-11-18T09:16:51;19.87;;;5.83;;
18776;SDS011;9517;51.174;4.160;2023-11-18T09:19:20;17.30;;;5.77;;
18776;SDS011;9517;51.174;4.160;2023-11-18T09:21:46;20.80;;;5.60;;
18776;SDS011;9517;51.174;4.160;2023-11-18T09:24:13;22.13;;;6.53;;
18776;SDS011;9517;51.174;4.160;2023-11-18T09:26:45;22.43;;;5.80;;
18776;SDS011;9517;51.174;4.160;2023-11-18T09:29:15;18.83;;;5.90;;
18776;SDS011;9517;51.174;4.160;2023-11-18T09:31:44;18.20;;;5.70;;
18776;SDS011;9517;51.174;4.160;2023-11-18T09:34:13;20.50;;;6.93;;
18776;SDS011;9517;51.174;4.160;2023-11-18T09:36:42;21.90;;;6.97;;
18776;SDS011;9517;51.174;4.160;2023-11-18T09:39:09;22.70;;;6.97;;
18776;SDS011;9517;51.174;4.160;2023-11-18T09:41:54;17.80;;;7.47;;
18776;SDS011;9517;51.174;4.160;2023-11-18T09:44:22;24.40;;;8.07;;
18776;SDS011;9517;51.174;4.160;2023-11-18T09:46:54;19.60;;;6.70;;
18776;SDS011;9517;51.174;4.160;2023-11-18T09:49:30;24.90;;;6.97;;
18776;SDS011;9517;51.174;4.160;2023-11-18T09:52:04;20.27;;;7.23;;
18776;SDS011;9517;51.174;4.160;2023-11-18T09:54:34;21.67;;;7.20;;
18776;SDS011;9517;51.174;4.160;2023-11-18T09:57:14;20.87;;;7.43;;
18776;SDS011;9517;51.174;4.160;2023-11-18T09:59:49;20.30;;;7.00;;
18776;SDS011;9517;51.174;4.160;2023-11-18T10:02:25;24.97;;;6.47;;
18776;SDS011;9517;51.174;4.160;2023-11-18T10:04:52;19.87;;;8.10;;
18776;SDS011;9517;51.174;4.160;2023-11-18T10:07:22;21.57;;;7.13;;
18776;SDS011;9517;51.174;4.160;2023-11-18T10:09:53;22.40;;;6.87;;
18776;SDS011;9517;51.174;4.160;2023-11-18T10:12:22;17.87;;;7.30;;
18776;SDS011;9517;51.174;4.160;2023-11-18T10:14:52;18.80;;;7.30;;
18776;SDS011;9517;51.174;4.160;2023-11-18T10:17:19;21.80;;;7.90;;
18776;SDS011;9517;51.174;4.160;2023-11-18T10:19:56;20.30;;;7.00;;
18776;SDS011;9517;51.174;4.160;2023-11-18T10:22:25;21.37;;;7.90;;
18776;SDS011;9517;51.174;4.160;2023-11-18T10:24:53;19.00;;;7.47;;
18776;SDS011;9517;51.174;4.160;2023-11-18T10:27:21;21.47;;;7.37;;
18776;SDS011;9517;51.174;4.160;2023-11-18T10:29:50;18.47;;;6.97;;
18776;SDS011;9517;51.174;4.160;2023-11-18T10:32:22;22.67;;;6.23;;
18776;SDS011;9517;51.174;4.160;2023-11-18T10:34:53;15.50;;;5.93;;
18776;SDS011;9517;51.174;4.160;2023-11-18T10:37:28;17.07;;;6.90;;
18776;SDS011;9517;51.174;4.160;2023-11-18T10:39:56;15.30;;;6.30;;
18776;SDS011;9517;51.174;4.160;2023-11-18T10:42:25;16.13;;;7.00;;
18776;SDS011;9517;51.174;4.160;2023-11-18T10:44:58;16.87;;;6.97;;
18776;SDS011;9517;51.174;4.160;2023-11-18T10:47:27;17.87;;;7.17;;
18776;SDS011;9517;51.174;4.160;2023-11-18T10:49:55;15.00;;;6.40;;
18776;SDS011;9517;51.174;4.160;2023-11-18T10:52:22;19.73;;;7.07;;
18776;SDS011;9517;51.174;4.160;2023-11-18T10:54:53;15.97;;;6.97;;
18776;SDS011;9517;51.174;4.160;2023-11-18T10:57:21;18.17;;;7.10;;
18776;SDS011;9517;51.174;4.160;2023-11-18T10:59:58;17.60;;;6.83;;
18776;SDS011;9517;51.174;4.160;2023-11-18T11:02:28;16.00;;;6.83;;
18776;SDS011;9517;51.174;4.160;2023-11-18T11:05:00;15.20;;;6.90;;
18776;SDS011;9517;51.174;4.160;2023-11-18T11:07:28;16.37;;;7.50;;
18776;SDS011;9517;51.174;4.160;2023-11-18T11:09:58;17.83;;;7.10;;
18776;SDS011;9517;51.174;4.160;2023-11-18T11:12:29;13.47;;;6.77;;
18776;SDS011;9517;51.174;4.160;2023-11-18T11:15:05;16.47;;;7.13;;
18776;SDS011;9517;51.174;4.160;2023-11-18T11:17:47;15.40;;;6.33;;
18776;SDS011;9517;51.174;4.160;2023-11-18T11:20:21;16.90;;;6.50;;
18776;SDS011;9517;51.174;4.160;2023-11-18T11:22:56;16.70;;;6.83;;
18776;SDS011;9517;51.174;4.160;2023-11-18T11:25:35;14.50;;;6.30;;
18776;SDS011;9517;51.174;4.160;2023-11-18T11:28:11;16.17;;;6.53;;
18776;SDS011;9517;51.174;4.160;2023-11-18T11:30:46;13.97;;;6.00;;
18776;SDS011;9517;51.174;4.160;2023-11-18T11:33:19;17.90;;;6.73;;
18776;SDS011;9517;51.174;4.160;2023-11-18T11:35:55;19.77;;;6.67;;
18776;SDS011;9517;51.174;4.160;2023-11-18T11:38:23;12.60;;;5.27;;
18776;SDS011;9517;51.174;4.160;2023-11-18T11:40:53;12.40;;;5.10;;
18776;SDS011;9517;51.174;4.160;2023-11-18T11:43:20;15.37;;;5.23;;
18776;SDS011;9517;51.174;4.160;2023-11-18T11:45:49;14.43;;;5.30;;
18776;SDS011;9517;51.174;4.160;2023-11-18T11:48:20;12.20;;;5.37;;
18776;SDS011;9517;51.174;4.160;2023-11-18T11:51:07;12.23;;;5.00;;
18776;SDS011;9517;51.174;4.160;2023-11-18T11:53:47;12.50;;;5.07;;
18776;SDS011;9517;51.174;4.160;2023-11-18T11:56:20;9.67;;;3.20;;
18776;SDS011;9517;51.174;4.160;2023-11-18T11:58:49;9.60;;;3.40;;
18776;SDS011;9517;51.174;4.160;2023-11-18T12:01:23;10.43;;;3.67;;
18776;SDS011;9517;51.174;4.160;2023-11-18T12:03:56;9.97;;;4.00;;
18776;SDS011;9517;51.174;4.160;2023-11-18T12:06:31;10.03;;;3.20;;
18776;SDS011;9517;51.174;4.160;2023-11-18T12:09:00;13.70;;;3.10;;
18776;SDS011;9517;51.174;4.160;2023-11-18T12:11:34;6.63;;;2.70;;
18776;SDS011;9517;51.174;4.160;2023-11-18T12:14:05;6.57;;;2.67;;
18776;SDS011;9517;51.174;4.160;2023-11-18T12:19:32;5.37;;;2.00;;
18776;SDS011;9517;51.174;4.160;2023-11-18T12:22:10;7.13;;;2.60;;
18776;SDS011;9517;51.174;4.160;2023-11-18T12:24:43;7.80;;;2.10;;
18776;SDS011;9517;51.174;4.160;2023-11-18T12:27:44;7.37;;;2.40;;
18776;SDS011;9517;51.174;4.160;2023-11-18T12:33:09;8.57;;;2.27;;
18776;SDS011;9517;51.174;4.160;2023-11-18T12:35:47;8.10;;;2.20;;
18776;SDS011;9517;51.174;4.160;2023-11-18T12:38:54;4.63;;;1.93;;
18776;SDS011;9517;51.174;4.160;2023-11-18T12:41:54;6.73;;;1.93;;
18776;SDS011;9517;51.174;4.160;2023-11-18T12:44:35;5.40;;;1.93;;
18776;SDS011;9517;51.174;4.160;2023-11-18T12:47:04;9.30;;;2.37;;
18776;SDS011;9517;51.174;4.160;2023-11-18T12:49:39;6.87;;;2.17;;
18776;SDS011;9517;51.174;4.160;2023-11-18T12:52:06;5.67;;;2.10;;
18776;SDS011;9517;51.174;4.160;2023-11-18T12:54:35;5.90;;;2.33;;
18776;SDS011;9517;51.174;4.160;2023-11-18T12:57:06;5.53;;;2.13;;
18776;SDS011;9517;51.174;4.160;2023-11-18T12:59:35;9.57;;;2.40;;
18776;SDS011;9517;51.174;4.160;2023-11-18T13:02:06;9.27;;;2.37;;
18776;SDS011;9517;51.174;4.160;2023-11-18T13:04:38;7.27;;;2.50;;
18776;SDS011;9517;51.174;4.160;2023-11-18T13:07:06;6.67;;;2.40;;
18776;SDS011;9517;51.174;4.160;2023-11-18T13:09:36;6.40;;;2.50;;
18776;SDS011;9517;51.174;4.160;2023-11-18T13:12:06;7.23;;;2.57;;
18776;SDS011;9517;51.174;4.160;2023-11-18T13:14:35;8.23;;;2.40;;
18776;SDS011;9517;51.174;4.160;2023-11-18T13:17:08;8.33;;;2.40;;
18776;SDS011;9517;51.174;4.160;2023-11-18T13:19:36;8.10;;;2.43;;
18776;SDS011;9517;51.174;4.160;2023-11-18T13:22:04;7.67;;;2.40;;
18776;SDS011;9517;51.174;4.160;2023-11-18T13:24:34;8.60;;;2.40;;
18776;SDS011;9517;51.174;4.160;2023-11-18T13:27:01;7.30;;;2.47;;
18776;SDS011;9517;51.174;4.160;2023-11-18T13:29:30;8.80;;;2.73;;
18776;SDS011;9517;51.174;4.160;2023-11-18T13:31:59;9.47;;;2.53;;
18776;SDS011;9517;51.174;4.160;2023-11-18T13:34:29;6.07;;;2.27;;
18776;SDS011;9517;51.174;4.160;2023-11-18T13:36:58;9.73;;;2.30;;
18776;SDS011;9517;51.174;4.160;2023-11-18T13:39:26;6.13;;;1.90;;
18776;SDS011;9517;51.174;4.160;2023-11-18T13:41:54;6.97;;;1.97;;
18776;SDS011;9517;51.174;4.160;2023-11-18T13:44:33;8.03;;;2.17;;
18776;SDS011;9517;51.174;4.160;2023-11-18T13:47:02;6.63;;;2.30;;
18776;SDS011;9517;51.174;4.160;2023-11-18T13:49:31;8.57;;;2.47;;
18776;SDS011;9517;51.174;4.160;2023-11-18T13:51:59;5.73;;;2.10;;
18776;SDS011;9517;51.174;4.160;2023-11-18T13:54:27;7.60;;;2.40;;
18776;SDS011;9517;51.174;4.160;2023-11-18T13:56:55;4.73;;;1.80;;
18776;SDS011;9517;51.174;4.160;2023-11-18T13:59:24;6.73;;;2.30;;
18776;SDS011;9517;51.174;4.160;2023-11-18T14:01:52;5.87;;;2.00;;
18776;SDS011;9517;51.174;4.160;2023-11-18T14:04:23;4.80;;;1.77;;
18776;SDS011;9517;51.174;4.160;2023-11-18T14:06:51;5.37;;;2.00;;
18776;SDS011;9517;51.174;4.160;2023-11-18T14:09:19;6.67;;;2.10;;
18776;SDS011;9517;51.174;4.160;2023-11-18T14:11:50;6.70;;;2.20;;
18776;SDS011;9517;51.174;4.160;2023-11-18T14:14:18;7.67;;;2.40;;
18776;SDS011;9517;51.174;4.160;2023-11-18T14:16:46;5.07;;;2.10;;
18776;SDS011;9517;51.174;4.160;2023-11-18T14:19:13;4.63;;;1.90;;
18776;SDS011;9517;51.174;4.160;2023-11-18T14:21:41;6.87;;;2.50;;
18776;SDS011;9517;51.174;4.160;2023-11-18T14:24:09;5.93;;;1.90;;
18776;SDS011;9517;51.174;4.160;2023-11-18T14:26:36;5.27;;;2.10;;
18776;SDS011;9517;51.174;4.160;2023-11-18T14:29:05;7.20;;;2.33;;
18776;SDS011;9517;51.174;4.160;2023-11-18T14:31:32;5.63;;;2.30;;
18776;SDS011;9517;51.174;4.160;2023-11-18T14:34:00;4.83;;;2.00;;
18776;SDS011;9517;51.174;4.160;2023-11-18T14:36:28;6.30;;;2.40;;
18776;SDS011;9517;51.174;4.160;2023-11-18T14:38:56;5.80;;;2.40;;
18776;SDS011;9517;51.174;4.160;2023-11-18T14:41:24;5.00;;;1.93;;
18776;SDS011;9517;51.174;4.160;2023-11-18T14:43:52;5.77;;;2.40;;
18776;SDS011;9517;51.174;4.160;2023-11-18T14:46:19;6.80;;;2.20;;
18776;SDS011;9517;51.174;4.160;2023-11-18T14:48:46;5.03;;;2.20;;
18776;SDS011;9517;51.174;4.160;2023-11-18T14:51:13;5.37;;;2.20;;
18776;SDS011;9517;51.174;4.160;2023-11-18T14:53:41;4.20;;;1.70;;
18776;SDS011;9517;51.174;4.160;2023-11-18T14:56:10;4.70;;;1.73;;
18776;SDS011;9517;51.174;4.160;2023-11-18T14:58:37;5.27;;;1.93;;
18776;SDS011;9517;51.174;4.160;2023-11-18T15:01:05;5.40;;;1.90;;
18776;SDS011;9517;51.174;4.160;2023-11-18T15:03:36;5.33;;;2.00;;
18776;SDS011;9517;51.174;4.160;2023-11-18T15:06:03;5.33;;;1.90;;
18776;SDS011;9517;51.174;4.160;2023-11-18T15:08:31;5.03;;;2.27;;
18776;SDS011;9517;51.174;4.160;2023-11-18T15:10:58;5.70;;;2.57;;
18776;SDS011;9517;51.174;4.160;2023-11-18T15:13:27;6.17;;;2.67;;
18776;SDS011;9517;51.174;4.160;2023-11-18T15:15:54;5.63;;;2.07;;
18776;SDS011;9517;51.174;4.160;2023-11-18T15:18:21;7.73;;;2.23;;
18776;SDS011;9517;51.174;4.160;2023-11-18T15:20:48;5.37;;;2.00;;
18776;SDS011;9517;51.174;4.160;2023-11-18T15:23:17;4.80;;;2.07;;
18776;SDS011;9517;51.174;4.160;2023-11-18T15:25:47;6.13;;;2.23;;
18776;SDS011;9517;51.174;4.160;2023-11-18T15:28:15;8.30;;;3.23;;